sensor_id;sensor_type;location;lat;lon;timestamp;P1;durP1;ratioP1;P2;durP2;ratioP2
46411;SDS011;32113;42.012;24.870;2023-11-25T00:02:14;57.95;;;36.05;;
46411;SDS011;32113;42.012;24.870;2023-11-25T00:04:39;52.58;;;35.90;;
46411;SDS011;32113;42.012;24.870;2023-11-25T00:07:05;53.00;;;36.30;;
46411;SDS011;32113;42.012;24.870;2023-11-25T00:09:30;49.38;;;34.00;;
46411;SDS011;32113;42.012;24.870;2023-11-25T00:11:56;50.42;;;37.35;;
46411;SDS011;32113;42.012;24.870;2023-11-25T00:14:22;56.95;;;37.17;;
46411;SDS011;32113;42.012;24.870;2023-11-25T00:16:48;56.35;;;36.30;;
46411;SDS011;32113;42.012;24.870;2023-11-25T00:19:17;54.38;;;36.88;;
46411;SDS011;32113;42.012;24.870;2023-11-25T00:21:42;49.72;;;34.67;;
46411;SDS011;32113;42.012;24.870;2023-11-25T00:24:08;49.78;;;34.67;;
46411;SDS011;32113;42.012;24.870;2023-11-25T00:26:34;47.38;;;34.65;;
46411;SDS011;32113;42.012;24.870;2023-11-25T00:28:59;52.47;;;35.83;;
46411;SDS011;32113;42.012;24.870;2023-11-25T00:31:25;53.67;;;36.20;;
46411;SDS011;32113;42.012;24.870;2023-11-25T00:33:50;51.88;;;36.20;;
46411;SDS011;32113;42.012;24.870;2023-11-25T00:36:16;52.72;;;36.65;;
46411;SDS011;32113;42.012;24.870;2023-11-25T00:38:42;51.25;;;34.20;;
46411;SDS011;32113;42.012;24.870;2023-11-25T00:41:08;52.25;;;35.05;;
46411;SDS011;32113;42.012;24.870;2023-11-25T00:43:33;52.35;;;35.03;;
46411;SDS011;32113;42.012;24.870;2023-11-25T00:45:59;55.58;;;37.47;;
46411;SDS011;32113;42.012;24.870;2023-11-25T00:48:24;57.63;;;37.75;;
46411;SDS011;32113;42.012;24.870;2023-11-25T00:50:50;53.53;;;36.03;;
46411;SDS011;32113;42.012;24.870;2023-11-25T00:53:16;58.53;;;35.83;;
46411;SDS011;32113;42.012;24.870;2023-11-25T00:55:42;55.15;;;35.50;;
46411;SDS011;32113;42.012;24.870;2023-11-25T00:58:08;54.67;;;37.72;;
46411;SDS011;32113;42.012;24.870;2023-11-25T01:00:33;54.90;;;36.90;;
46411;SDS011;32113;42.012;24.870;2023-11-25T01:02:59;49.13;;;35.30;;
46411;SDS011;32113;42.012;24.870;2023-11-25T01:05:24;49.72;;;35.25;;
46411;SDS011;32113;42.012;24.870;2023-11-25T01:07:50;52.25;;;35.15;;
46411;SDS011;32113;42.012;24.870;2023-11-25T01:10:16;49.03;;;35.75;;
46411;SDS011;32113;42.012;24.870;2023-11-25T01:12:42;57.75;;;35.45;;
46411;SDS011;32113;42.012;24.870;2023-11-25T01:15:08;52.08;;;36.20;;
46411;SDS011;32113;42.012;24.870;2023-11-25T01:17:36;51.63;;;35.35;;
46411;SDS011;32113;42.012;24.870;2023-11-25T01:20:02;49.75;;;36.20;;
46411;SDS011;32113;42.012;24.870;2023-11-25T01:22:28;48.03;;;34.50;;
46411;SDS011;32113;42.012;24.870;2023-11-25T01:24:54;53.83;;;36.20;;
46411;SDS011;32113;42.012;24.870;2023-11-25T01:27:19;49.92;;;36.72;;
46411;SDS011;32113;42.012;24.870;2023-11-25T01:29:48;54.17;;;36.05;;
46411;SDS011;32113;42.012;24.870;2023-11-25T01:32:14;53.13;;;36.80;;
46411;SDS011;32113;42.012;24.870;2023-11-25T01:34:39;49.75;;;36.60;;
46411;SDS011;32113;42.012;24.870;2023-11-25T01:37:05;50.65;;;34.80;;
46411;SDS011;32113;42.012;24.870;2023-11-25T01:39:30;52.65;;;35.85;;
46411;SDS011;32113;42.012;24.870;2023-11-25T01:41:55;55.55;;;37.22;;
46411;SDS011;32113;42.012;24.870;2023-11-25T01:44:21;55.92;;;36.78;;
46411;SDS011;32113;42.012;24.870;2023-11-25T01:46:47;51.85;;;35.60;;
46411;SDS011;32113;42.012;24.870;2023-11-25T01:49:14;53.42;;;36.55;;
46411;SDS011;32113;42.012;24.870;2023-11-25T01:51:40;54.90;;;37.05;;
46411;SDS011;32113;42.012;24.870;2023-11-25T01:54:13;52.50;;;35.10;;
46411;SDS011;32113;42.012;24.870;2023-11-25T01:56:39;52.50;;;36.10;;
46411;SDS011;32113;42.012;24.870;2023-11-25T01:59:06;46.95;;;33.47;;
46411;SDS011;32113;42.012;24.870;2023-11-25T02:01:33;54.13;;;34.75;;
46411;SDS011;32113;42.012;24.870;2023-11-25T02:03:59;51.45;;;34.40;;
46411;SDS011;32113;42.012;24.870;2023-11-25T02:06:25;51.85;;;34.92;;
46411;SDS011;32113;42.012;24.870;2023-11-25T02:08:51;55.90;;;34.80;;
46411;SDS011;32113;42.012;24.870;2023-11-25T02:11:17;49.22;;;34.03;;
46411;SDS011;32113;42.012;24.870;2023-11-25T02:13:43;52.70;;;36.22;;
46411;SDS011;32113;42.012;24.870;2023-11-25T02:16:09;49.75;;;34.38;;
46411;SDS011;32113;42.012;24.870;2023-11-25T02:18:37;51.72;;;35.72;;
46411;SDS011;32113;42.012;24.870;2023-11-25T02:21:03;49.38;;;33.58;;
46411;SDS011;32113;42.012;24.870;2023-11-25T02:23:30;51.28;;;34.17;;
46411;SDS011;32113;42.012;24.870;2023-11-25T02:25:56;51.80;;;34.05;;
46411;SDS011;32113;42.012;24.870;2023-11-25T02:28:23;43.53;;;30.58;;
46411;SDS011;32113;42.012;24.870;2023-11-25T02:30:49;46.63;;;32.90;;
46411;SDS011;32113;42.012;24.870;2023-11-25T02:33:15;50.45;;;30.67;;
46411;SDS011;32113;42.012;24.870;2023-11-25T02:35:42;42.97;;;30.90;;
46411;SDS011;32113;42.012;24.870;2023-11-25T02:38:10;53.47;;;33.42;;
46411;SDS011;32113;42.012;24.870;2023-11-25T02:40:40;49.83;;;32.67;;
46411;SDS011;32113;42.012;24.870;2023-11-25T02:43:08;40.50;;;30.00;;
46411;SDS011;32113;42.012;24.870;2023-11-25T02:45:34;46.60;;;31.55;;
46411;SDS011;32113;42.012;24.870;2023-11-25T02:48:00;49.78;;;32.15;;
46411;SDS011;32113;42.012;24.870;2023-11-25T02:50:25;44.88;;;30.70;;
46411;SDS011;32113;42.012;24.870;2023-11-25T02:52:51;48.85;;;31.75;;
46411;SDS011;32113;42.012;24.870;2023-11-25T02:55:16;45.83;;;31.13;;
46411;SDS011;32113;42.012;24.870;2023-11-25T02:57:43;49.17;;;32.03;;
46411;SDS011;32113;42.012;24.870;2023-11-25T03:00:12;46.92;;;30.05;;
46411;SDS011;32113;42.012;24.870;2023-11-25T03:02:53;41.95;;;29.70;;
46411;SDS011;32113;42.012;24.870;2023-11-25T03:05:28;37.97;;;28.63;;
46411;SDS011;32113;42.012;24.870;2023-11-25T03:07:56;43.75;;;28.73;;
46411;SDS011;32113;42.012;24.870;2023-11-25T03:10:22;51.25;;;29.83;;
46411;SDS011;32113;42.012;24.870;2023-11-25T03:12:50;48.30;;;28.65;;
46411;SDS011;32113;42.012;24.870;2023-11-25T03:15:16;44.80;;;30.55;;
46411;SDS011;32113;42.012;24.870;2023-11-25T03:17:41;43.08;;;29.88;;
46411;SDS011;32113;42.012;24.870;2023-11-25T03:20:07;44.53;;;28.92;;
46411;SDS011;32113;42.012;24.870;2023-11-25T03:22:33;44.38;;;29.25;;
46411;SDS011;32113;42.012;24.870;2023-11-25T03:24:59;42.08;;;28.50;;
46411;SDS011;32113;42.012;24.870;2023-11-25T03:27:26;44.00;;;29.92;;
46411;SDS011;32113;42.012;24.870;2023-11-25T03:29:53;38.33;;;27.30;;
46411;SDS011;32113;42.012;24.870;2023-11-25T03:32:19;39.97;;;28.73;;
46411;SDS011;32113;42.012;24.870;2023-11-25T03:34:45;43.00;;;29.58;;
46411;SDS011;32113;42.012;24.870;2023-11-25T03:37:11;44.40;;;27.63;;
46411;SDS011;32113;42.012;24.870;2023-11-25T03:39:36;41.55;;;28.55;;
46411;SDS011;32113;42.012;24.870;2023-11-25T03:42:03;41.15;;;29.13;;
46411;SDS011;32113;42.012;24.870;2023-11-25T03:44:30;41.92;;;28.80;;
46411;SDS011;32113;42.012;24.870;2023-11-25T03:46:55;41.33;;;29.48;;
46411;SDS011;32113;42.012;24.870;2023-11-25T03:49:21;41.85;;;28.95;;
46411;SDS011;32113;42.012;24.870;2023-11-25T03:51:46;40.47;;;28.02;;
46411;SDS011;32113;42.012;24.870;2023-11-25T03:54:12;43.90;;;29.08;;
46411;SDS011;32113;42.012;24.870;2023-11-25T03:56:37;44.60;;;29.15;;
46411;SDS011;32113;42.012;24.870;2023-11-25T03:59:03;46.50;;;28.58;;
46411;SDS011;32113;42.012;24.870;2023-11-25T04:01:28;46.03;;;31.52;;
46411;SDS011;32113;42.012;24.870;2023-11-25T04:03:54;41.72;;;29.85;;
46411;SDS011;32113;42.012;24.870;2023-11-25T04:06:19;45.63;;;29.92;;
46411;SDS011;32113;42.012;24.870;2023-11-25T04:08:45;44.58;;;28.95;;
46411;SDS011;32113;42.012;24.870;2023-11-25T04:11:10;44.38;;;31.58;;
46411;SDS011;32113;42.012;24.870;2023-11-25T04:13:36;47.53;;;31.00;;
46411;SDS011;32113;42.012;24.870;2023-11-25T04:16:01;42.90;;;28.58;;
46411;SDS011;32113;42.012;24.870;2023-11-25T04:18:29;42.15;;;29.38;;
46411;SDS011;32113;42.012;24.870;2023-11-25T04:20:55;44.73;;;30.23;;
46411;SDS011;32113;42.012;24.870;2023-11-25T04:23:21;43.33;;;27.58;;
46411;SDS011;32113;42.012;24.870;2023-11-25T04:25:46;38.50;;;27.35;;
46411;SDS011;32113;42.012;24.870;2023-11-25T04:28:12;36.05;;;26.42;;
46411;SDS011;32113;42.012;24.870;2023-11-25T04:30:38;40.05;;;26.35;;
46411;SDS011;32113;42.012;24.870;2023-11-25T04:33:06;34.58;;;25.00;;
46411;SDS011;32113;42.012;24.870;2023-11-25T04:35:34;38.72;;;25.65;;
46411;SDS011;32113;42.012;24.870;2023-11-25T04:38:02;36.40;;;25.85;;
46411;SDS011;32113;42.012;24.870;2023-11-25T04:40:28;38.53;;;26.10;;
46411;SDS011;32113;42.012;24.870;2023-11-25T04:42:53;35.08;;;26.08;;
46411;SDS011;32113;42.012;24.870;2023-11-25T04:45:19;38.90;;;26.92;;
46411;SDS011;32113;42.012;24.870;2023-11-25T04:47:46;42.45;;;26.40;;
46411;SDS011;32113;42.012;24.870;2023-11-25T04:50:13;40.53;;;25.00;;
46411;SDS011;32113;42.012;24.870;2023-11-25T04:52:40;34.17;;;22.63;;
46411;SDS011;32113;42.012;24.870;2023-11-25T04:55:07;37.90;;;25.05;;
46411;SDS011;32113;42.012;24.870;2023-11-25T04:57:34;35.28;;;25.08;;
46411;SDS011;32113;42.012;24.870;2023-11-25T05:00:00;40.13;;;27.13;;
46411;SDS011;32113;42.012;24.870;2023-11-25T05:04:54;38.40;;;25.85;;
46411;SDS011;32113;42.012;24.870;2023-11-25T05:07:19;39.13;;;25.95;;
46411;SDS011;32113;42.012;24.870;2023-11-25T05:09:45;36.67;;;25.65;;
46411;SDS011;32113;42.012;24.870;2023-11-25T05:12:11;37.85;;;26.08;;
46411;SDS011;32113;42.012;24.870;2023-11-25T05:14:36;35.28;;;25.75;;
46411;SDS011;32113;42.012;24.870;2023-11-25T05:17:03;38.55;;;26.52;;
46411;SDS011;32113;42.012;24.870;2023-11-25T05:19:29;38.28;;;25.45;;
46411;SDS011;32113;42.012;24.870;2023-11-25T05:21:56;37.20;;;25.95;;
46411;SDS011;32113;42.012;24.870;2023-11-25T05:24:22;37.25;;;24.95;;
46411;SDS011;32113;42.012;24.870;2023-11-25T05:26:47;47.78;;;26.90;;
46411;SDS011;32113;42.012;24.870;2023-11-25T05:29:13;38.78;;;26.88;;
46411;SDS011;32113;42.012;24.870;2023-11-25T05:31:38;35.65;;;26.23;;
46411;SDS011;32113;42.012;24.870;2023-11-25T05:34:04;38.25;;;25.40;;
46411;SDS011;32113;42.012;24.870;2023-11-25T05:36:30;38.70;;;27.20;;
46411;SDS011;32113;42.012;24.870;2023-11-25T05:38:58;39.75;;;28.02;;
46411;SDS011;32113;42.012;24.870;2023-11-25T05:41:25;40.20;;;26.70;;
46411;SDS011;32113;42.012;24.870;2023-11-25T05:43:52;41.60;;;27.95;;
46411;SDS011;32113;42.012;24.870;2023-11-25T05:46:21;41.15;;;28.48;;
46411;SDS011;32113;42.012;24.870;2023-11-25T05:48:48;40.55;;;28.42;;
46411;SDS011;32113;42.012;24.870;2023-11-25T05:51:14;40.97;;;29.25;;
46411;SDS011;32113;42.012;24.870;2023-11-25T05:53:41;42.22;;;29.55;;
46411;SDS011;32113;42.012;24.870;2023-11-25T05:56:07;42.92;;;30.83;;
46411;SDS011;32113;42.012;24.870;2023-11-25T05:58:32;40.88;;;28.33;;
46411;SDS011;32113;42.012;24.870;2023-11-25T06:00:57;35.35;;;26.80;;
46411;SDS011;32113;42.012;24.870;2023-11-25T06:03:23;39.28;;;27.88;;
46411;SDS011;32113;42.012;24.870;2023-11-25T06:05:48;42.30;;;27.13;;
46411;SDS011;32113;42.012;24.870;2023-11-25T06:08:14;46.95;;;29.48;;
46411;SDS011;32113;42.012;24.870;2023-11-25T06:10:39;38.08;;;25.20;;
46411;SDS011;32113;42.012;24.870;2023-11-25T06:13:05;37.17;;;24.65;;
46411;SDS011;32113;42.012;24.870;2023-11-25T06:15:30;34.72;;;24.17;;
46411;SDS011;32113;42.012;24.870;2023-11-25T06:17:56;40.00;;;23.70;;
46411;SDS011;32113;42.012;24.870;2023-11-25T06:20:21;36.25;;;24.80;;
46411;SDS011;32113;42.012;24.870;2023-11-25T06:22:50;36.20;;;23.80;;
46411;SDS011;32113;42.012;24.870;2023-11-25T06:25:19;40.38;;;26.17;;
46411;SDS011;32113;42.012;24.870;2023-11-25T06:27:44;39.70;;;26.25;;
46411;SDS011;32113;42.012;24.870;2023-11-25T06:30:10;53.00;;;26.52;;
46411;SDS011;32113;42.012;24.870;2023-11-25T06:32:35;37.83;;;23.88;;
46411;SDS011;32113;42.012;24.870;2023-11-25T06:35:02;34.03;;;24.25;;
46411;SDS011;32113;42.012;24.870;2023-11-25T06:37:29;43.75;;;25.63;;
46411;SDS011;32113;42.012;24.870;2023-11-25T06:39:55;40.60;;;25.67;;
46411;SDS011;32113;42.012;24.870;2023-11-25T06:42:21;42.80;;;25.65;;
46411;SDS011;32113;42.012;24.870;2023-11-25T06:44:47;40.85;;;24.88;;
46411;SDS011;32113;42.012;24.870;2023-11-25T06:47:13;36.88;;;24.67;;
46411;SDS011;32113;42.012;24.870;2023-11-25T06:49:42;36.85;;;24.30;;
46411;SDS011;32113;42.012;24.870;2023-11-25T06:52:09;35.30;;;23.10;;
46411;SDS011;32113;42.012;24.870;2023-11-25T06:54:34;36.67;;;21.02;;
46411;SDS011;32113;42.012;24.870;2023-11-25T06:56:59;32.50;;;21.40;;
46411;SDS011;32113;42.012;24.870;2023-11-25T06:59:25;31.70;;;21.05;;
46411;SDS011;32113;42.012;24.870;2023-11-25T07:01:54;36.10;;;23.13;;
46411;SDS011;32113;42.012;24.870;2023-11-25T07:04:20;38.33;;;22.63;;
46411;SDS011;32113;42.012;24.870;2023-11-25T07:06:46;40.58;;;23.40;;
46411;SDS011;32113;42.012;24.870;2023-11-25T07:09:11;41.38;;;25.80;;
46411;SDS011;32113;42.012;24.870;2023-11-25T07:11:39;34.22;;;23.05;;
46411;SDS011;32113;42.012;24.870;2023-11-25T07:14:05;37.70;;;22.83;;
46411;SDS011;32113;42.012;24.870;2023-11-25T07:16:32;41.10;;;24.40;;
46411;SDS011;32113;42.012;24.870;2023-11-25T07:18:58;38.35;;;24.95;;
46411;SDS011;32113;42.012;24.870;2023-11-25T07:21:25;38.30;;;24.45;;
46411;SDS011;32113;42.012;24.870;2023-11-25T07:23:52;39.92;;;25.40;;
46411;SDS011;32113;42.012;24.870;2023-11-25T07:26:18;43.85;;;26.70;;
46411;SDS011;32113;42.012;24.870;2023-11-25T07:28:43;55.47;;;27.55;;
46411;SDS011;32113;42.012;24.870;2023-11-25T07:31:09;52.65;;;31.77;;
46411;SDS011;32113;42.012;24.870;2023-11-25T07:33:35;46.03;;;29.15;;
46411;SDS011;32113;42.012;24.870;2023-11-25T07:36:00;40.70;;;27.75;;
46411;SDS011;32113;42.012;24.870;2023-11-25T07:38:26;42.10;;;27.92;;
46411;SDS011;32113;42.012;24.870;2023-11-25T07:40:53;43.53;;;28.60;;
46411;SDS011;32113;42.012;24.870;2023-11-25T07:43:18;45.67;;;28.75;;
46411;SDS011;32113;42.012;24.870;2023-11-25T07:45:44;49.53;;;31.08;;
46411;SDS011;32113;42.012;24.870;2023-11-25T07:48:10;50.03;;;31.88;;
46411;SDS011;32113;42.012;24.870;2023-11-25T07:50:35;54.38;;;33.40;;
46411;SDS011;32113;42.012;24.870;2023-11-25T07:53:02;59.58;;;35.42;;
46411;SDS011;32113;42.012;24.870;2023-11-25T07:55:28;59.35;;;36.55;;
46411;SDS011;32113;42.012;24.870;2023-11-25T07:57:54;57.20;;;36.47;;
46411;SDS011;32113;42.012;24.870;2023-11-25T08:00:19;52.03;;;36.22;;
46411;SDS011;32113;42.012;24.870;2023-11-25T08:02:50;56.72;;;36.45;;
46411;SDS011;32113;42.012;24.870;2023-11-25T08:05:21;59.97;;;35.92;;
46411;SDS011;32113;42.012;24.870;2023-11-25T08:07:56;61.73;;;37.50;;
46411;SDS011;32113;42.012;24.870;2023-11-25T08:10:22;56.05;;;40.35;;
46411;SDS011;32113;42.012;24.870;2023-11-25T08:12:56;55.78;;;38.55;;
46411;SDS011;32113;42.012;24.870;2023-11-25T08:15:23;64.75;;;38.15;;
46411;SDS011;32113;42.012;24.870;2023-11-25T08:17:48;62.80;;;38.83;;
46411;SDS011;32113;42.012;24.870;2023-11-25T08:20:14;66.70;;;42.22;;
46411;SDS011;32113;42.012;24.870;2023-11-25T08:22:39;69.20;;;42.25;;
46411;SDS011;32113;42.012;24.870;2023-11-25T08:25:06;62.70;;;41.10;;
46411;SDS011;32113;42.012;24.870;2023-11-25T08:27:35;57.42;;;38.33;;
46411;SDS011;32113;42.012;24.870;2023-11-25T08:30:05;61.93;;;41.93;;
46411;SDS011;32113;42.012;24.870;2023-11-25T08:32:38;65.32;;;41.75;;
46411;SDS011;32113;42.012;24.870;2023-11-25T08:35:05;60.25;;;40.15;;
46411;SDS011;32113;42.012;24.870;2023-11-25T08:37:31;62.28;;;40.15;;
46411;SDS011;32113;42.012;24.870;2023-11-25T08:39:58;69.88;;;41.80;;
46411;SDS011;32113;42.012;24.870;2023-11-25T08:42:23;64.13;;;40.22;;
46411;SDS011;32113;42.012;24.870;2023-11-25T08:44:51;60.25;;;39.05;;
46411;SDS011;32113;42.012;24.870;2023-11-25T08:47:17;63.78;;;39.72;;
46411;SDS011;32113;42.012;24.870;2023-11-25T08:49:44;59.83;;;40.15;;
46411;SDS011;32113;42.012;24.870;2023-11-25T08:52:11;55.53;;;38.67;;
46411;SDS011;32113;42.012;24.870;2023-11-25T08:54:37;57.60;;;36.78;;
46411;SDS011;32113;42.012;24.870;2023-11-25T08:57:03;54.45;;;34.63;;
46411;SDS011;32113;42.012;24.870;2023-11-25T08:59:32;53.42;;;35.60;;
46411;SDS011;32113;42.012;24.870;2023-11-25T09:01:58;56.92;;;34.75;;
46411;SDS011;32113;42.012;24.870;2023-11-25T09:04:24;59.60;;;37.58;;
46411;SDS011;32113;42.012;24.870;2023-11-25T09:06:51;55.70;;;35.90;;
46411;SDS011;32113;42.012;24.870;2023-11-25T09:09:17;52.90;;;33.70;;
46411;SDS011;32113;42.012;24.870;2023-11-25T09:11:45;36.33;;;25.63;;
46411;SDS011;32113;42.012;24.870;2023-11-25T09:14:13;24.35;;;17.40;;
46411;SDS011;32113;42.012;24.870;2023-11-25T09:16:41;21.33;;;14.40;;
46411;SDS011;32113;42.012;24.870;2023-11-25T09:19:08;14.43;;;10.88;;
46411;SDS011;32113;42.012;24.870;2023-11-25T09:21:34;16.98;;;12.40;;
46411;SDS011;32113;42.012;24.870;2023-11-25T09:23:59;19.30;;;12.50;;
46411;SDS011;32113;42.012;24.870;2023-11-25T09:26:25;17.13;;;11.98;;
46411;SDS011;32113;42.012;24.870;2023-11-25T09:28:51;14.75;;;10.27;;
46411;SDS011;32113;42.012;24.870;2023-11-25T09:31:18;13.65;;;8.43;;
46411;SDS011;32113;42.012;24.870;2023-11-25T09:33:43;9.98;;;7.50;;
46411;SDS011;32113;42.012;24.870;2023-11-25T09:36:09;8.13;;;6.05;;
46411;SDS011;32113;42.012;24.870;2023-11-25T09:38:35;7.85;;;5.25;;
46411;SDS011;32113;42.012;24.870;2023-11-25T09:41:01;5.30;;;3.50;;
46411;SDS011;32113;42.012;24.870;2023-11-25T09:43:27;8.88;;;3.30;;
46411;SDS011;32113;42.012;24.870;2023-11-25T09:45:54;6.38;;;3.33;;
46411;SDS011;32113;42.012;24.870;2023-11-25T09:48:20;5.03;;;3.10;;
46411;SDS011;32113;42.012;24.870;2023-11-25T09:50:47;3.42;;;2.20;;
46411;SDS011;32113;42.012;24.870;2023-11-25T09:53:29;4.32;;;2.72;;
46411;SDS011;32113;42.012;24.870;2023-11-25T09:56:04;5.95;;;3.25;;
46411;SDS011;32113;42.012;24.870;2023-11-25T09:58:34;4.80;;;2.80;;
46411;SDS011;32113;42.012;24.870;2023-11-25T10:01:01;2.92;;;1.40;;
46411;SDS011;32113;42.012;24.870;2023-11-25T10:03:39;2.38;;;1.60;;
46411;SDS011;32113;42.012;24.870;2023-11-25T10:06:08;5.03;;;2.00;;
46411;SDS011;32113;42.012;24.870;2023-11-25T10:08:34;5.72;;;2.58;;
46411;SDS011;32113;42.012;24.870;2023-11-25T10:13:37;5.82;;;3.78;;
46411;SDS011;32113;42.012;24.870;2023-11-25T10:16:04;30.67;;;20.90;;
46411;SDS011;32113;42.012;24.870;2023-11-25T10:18:31;8.37;;;3.93;;
46411;SDS011;32113;42.012;24.870;2023-11-25T10:21:00;4.88;;;3.03;;
46411;SDS011;32113;42.012;24.870;2023-11-25T10:23:26;7.78;;;4.82;;
46411;SDS011;32113;42.012;24.870;2023-11-25T10:25:52;6.72;;;3.00;;
46411;SDS011;32113;42.012;24.870;2023-11-25T10:28:22;9.43;;;3.30;;
46411;SDS011;32113;42.012;24.870;2023-11-25T10:30:56;42.95;;;28.50;;
46411;SDS011;32113;42.012;24.870;2023-11-25T10:33:22;16.77;;;9.60;;
46411;SDS011;32113;42.012;24.870;2023-11-25T10:35:49;7.03;;;4.30;;
46411;SDS011;32113;42.012;24.870;2023-11-25T10:38:15;17.70;;;7.90;;
46411;SDS011;32113;42.012;24.870;2023-11-25T10:40:41;4.53;;;2.17;;
46411;SDS011;32113;42.012;24.870;2023-11-25T10:43:07;3.85;;;1.85;;
46411;SDS011;32113;42.012;24.870;2023-11-25T10:45:33;8.32;;;4.57;;
46411;SDS011;32113;42.012;24.870;2023-11-25T10:47:59;10.07;;;5.70;;
46411;SDS011;32113;42.012;24.870;2023-11-25T10:50:26;6.28;;;3.08;;
46411;SDS011;32113;42.012;24.870;2023-11-25T10:52:51;12.48;;;7.72;;
46411;SDS011;32113;42.012;24.870;2023-11-25T10:55:22;5.35;;;2.90;;
46411;SDS011;32113;42.012;24.870;2023-11-25T10:57:51;6.82;;;3.95;;
46411;SDS011;32113;42.012;24.870;2023-11-25T11:00:18;6.38;;;3.95;;
46411;SDS011;32113;42.012;24.870;2023-11-25T11:02:48;3.83;;;2.45;;
46411;SDS011;32113;42.012;24.870;2023-11-25T11:06:00;5.18;;;2.58;;
46411;SDS011;32113;42.012;24.870;2023-11-25T11:08:22;6.63;;;3.35;;
46411;SDS011;32113;42.012;24.870;2023-11-25T11:10:54;3.35;;;1.55;;
46411;SDS011;32113;42.012;24.870;2023-11-25T11:13:29;5.85;;;2.75;;
46411;SDS011;32113;42.012;24.870;2023-11-25T11:15:58;4.95;;;3.10;;
46411;SDS011;32113;42.012;24.870;2023-11-25T11:18:31;8.63;;;5.47;;
46411;SDS011;32113;42.012;24.870;2023-11-25T11:21:01;5.13;;;2.92;;
46411;SDS011;32113;42.012;24.870;2023-11-25T11:23:28;4.07;;;2.33;;
46411;SDS011;32113;42.012;24.870;2023-11-25T11:26:02;41.22;;;29.88;;
46411;SDS011;32113;42.012;24.870;2023-11-25T11:28:41;4.72;;;2.60;;
46411;SDS011;32113;42.012;24.870;2023-11-25T11:34:15;2.17;;;0.90;;
46411;SDS011;32113;42.012;24.870;2023-11-25T11:36:42;14.52;;;7.95;;
46411;SDS011;32113;42.012;24.870;2023-11-25T11:39:07;5.25;;;2.85;;
46411;SDS011;32113;42.012;24.870;2023-11-25T11:41:36;4.50;;;1.73;;
46411;SDS011;32113;42.012;24.870;2023-11-25T11:44:07;5.18;;;3.33;;
46411;SDS011;32113;42.012;24.870;2023-11-25T11:46:37;3.13;;;1.60;;
46411;SDS011;32113;42.012;24.870;2023-11-25T11:49:13;4.40;;;2.67;;
46411;SDS011;32113;42.012;24.870;2023-11-25T11:51:59;4.80;;;3.00;;
46411;SDS011;32113;42.012;24.870;2023-11-25T11:54:26;8.70;;;4.15;;
46411;SDS011;32113;42.012;24.870;2023-11-25T11:57:00;2.53;;;1.40;;
46411;SDS011;32113;42.012;24.870;2023-11-25T12:02:24;3.92;;;2.67;;
46411;SDS011;32113;42.012;24.870;2023-11-25T12:04:53;3.53;;;2.40;;
46411;SDS011;32113;42.012;24.870;2023-11-25T12:07:19;4.95;;;3.17;;
46411;SDS011;32113;42.012;24.870;2023-11-25T12:09:44;4.32;;;2.40;;
46411;SDS011;32113;42.012;24.870;2023-11-25T12:12:10;4.43;;;2.13;;
46411;SDS011;32113;42.012;24.870;2023-11-25T12:14:36;6.53;;;2.92;;
46411;SDS011;32113;42.012;24.870;2023-11-25T12:17:01;5.88;;;3.50;;
46411;SDS011;32113;42.012;24.870;2023-11-25T12:19:27;6.07;;;3.42;;
46411;SDS011;32113;42.012;24.870;2023-11-25T12:21:53;8.25;;;5.32;;
46411;SDS011;32113;42.012;24.870;2023-11-25T12:24:19;17.40;;;10.40;;
46411;SDS011;32113;42.012;24.870;2023-11-25T12:26:45;10.45;;;6.45;;
46411;SDS011;32113;42.012;24.870;2023-11-25T12:29:18;8.75;;;4.80;;
46411;SDS011;32113;42.012;24.870;2023-11-25T12:31:48;19.55;;;11.43;;
46411;SDS011;32113;42.012;24.870;2023-11-25T12:34:14;7.50;;;4.22;;
46411;SDS011;32113;42.012;24.870;2023-11-25T12:36:40;13.65;;;9.68;;
46411;SDS011;32113;42.012;24.870;2023-11-25T12:39:07;24.13;;;16.70;;
46411;SDS011;32113;42.012;24.870;2023-11-25T12:41:40;22.17;;;13.23;;
46411;SDS011;32113;42.012;24.870;2023-11-25T12:44:08;17.80;;;10.55;;
46411;SDS011;32113;42.012;24.870;2023-11-25T12:46:37;55.85;;;33.03;;
46411;SDS011;32113;42.012;24.870;2023-11-25T12:49:22;20.73;;;13.05;;
46411;SDS011;32113;42.012;24.870;2023-11-25T12:51:50;12.23;;;8.80;;
46411;SDS011;32113;42.012;24.870;2023-11-25T12:54:16;18.10;;;9.40;;
46411;SDS011;32113;42.012;24.870;2023-11-25T12:56:42;14.30;;;9.20;;
46411;SDS011;32113;42.012;24.870;2023-11-25T12:59:21;16.63;;;11.32;;
46411;SDS011;32113;42.012;24.870;2023-11-25T13:02:10;9.07;;;6.45;;
46411;SDS011;32113;42.012;24.870;2023-11-25T13:04:47;11.07;;;6.57;;
46411;SDS011;32113;42.012;24.870;2023-11-25T13:07:28;79.18;;;40.67;;
46411;SDS011;32113;42.012;24.870;2023-11-25T13:09:58;182.50;;;84.63;;
46411;SDS011;32113;42.012;24.870;2023-11-25T13:12:24;189.18;;;92.50;;
46411;SDS011;32113;42.012;24.870;2023-11-25T13:14:53;32.45;;;17.30;;
46411;SDS011;32113;42.012;24.870;2023-11-25T13:17:20;171.75;;;93.22;;
46411;SDS011;32113;42.012;24.870;2023-11-25T13:19:47;83.65;;;46.20;;
46411;SDS011;32113;42.012;24.870;2023-11-25T13:22:12;117.72;;;72.82;;
46411;SDS011;32113;42.012;24.870;2023-11-25T13:24:38;63.67;;;40.58;;
46411;SDS011;32113;42.012;24.870;2023-11-25T13:27:03;10.55;;;6.03;;
46411;SDS011;32113;42.012;24.870;2023-11-25T13:29:29;11.65;;;7.28;;
46411;SDS011;32113;42.012;24.870;2023-11-25T13:31:55;25.88;;;17.33;;
46411;SDS011;32113;42.012;24.870;2023-11-25T13:34:24;22.08;;;13.48;;
46411;SDS011;32113;42.012;24.870;2023-11-25T13:36:49;7.97;;;5.00;;
46411;SDS011;32113;42.012;24.870;2023-11-25T13:39:17;23.52;;;14.15;;
46411;SDS011;32113;42.012;24.870;2023-11-25T13:41:45;30.05;;;20.48;;
46411;SDS011;32113;42.012;24.870;2023-11-25T13:44:12;22.50;;;14.65;;
46411;SDS011;32113;42.012;24.870;2023-11-25T13:46:38;10.60;;;6.43;;
46411;SDS011;32113;42.012;24.870;2023-11-25T13:49:04;36.60;;;21.75;;
46411;SDS011;32113;42.012;24.870;2023-11-25T13:51:29;25.60;;;15.45;;
46411;SDS011;32113;42.012;24.870;2023-11-25T13:53:55;52.33;;;30.33;;
46411;SDS011;32113;42.012;24.870;2023-11-25T13:56:22;61.13;;;34.65;;
46411;SDS011;32113;42.012;24.870;2023-11-25T13:58:49;25.67;;;14.98;;
46411;SDS011;32113;42.012;24.870;2023-11-25T14:01:16;38.72;;;21.77;;
46411;SDS011;32113;42.012;24.870;2023-11-25T14:03:42;66.20;;;36.72;;
46411;SDS011;32113;42.012;24.870;2023-11-25T14:06:07;36.10;;;17.65;;
46411;SDS011;32113;42.012;24.870;2023-11-25T14:08:33;64.50;;;35.20;;
46411;SDS011;32113;42.012;24.870;2023-11-25T14:10:59;30.38;;;18.75;;
46411;SDS011;32113;42.012;24.870;2023-11-25T14:13:25;10.63;;;6.47;;
46411;SDS011;32113;42.012;24.870;2023-11-25T14:15:54;18.00;;;9.82;;
46411;SDS011;32113;42.012;24.870;2023-11-25T14:18:20;18.73;;;10.90;;
46411;SDS011;32113;42.012;24.870;2023-11-25T14:20:45;21.85;;;12.10;;
46411;SDS011;32113;42.012;24.870;2023-11-25T14:23:11;7.47;;;4.38;;
46411;SDS011;32113;42.012;24.870;2023-11-25T14:25:37;48.10;;;25.73;;